Time;durP1;ratioP1;P1;durP2;ratioP2;P2;SDS_P1;SDS_P2;PMS_P1;PMS_P2;Temp;Humidity;BMP_temperature;BMP_pressure;BME280_temperature;BME280_humidity;BME280_pressure;Samples;Min_cycle;Max_cycle;Signal;HPM_P1;HPM_P2
2021/12/07 00:01:07;;;;;;;5.03;4.50;;;4.50;99.90;;;;;;5015739;28;20562;-75
2021/12/07 00:03:35;;;;;;;6.90;4.63;;;4.50;99.90;;;;;;5016090;28;20983;-75
2021/12/07 00:06:02;;;;;;;4.60;3.80;;;4.40;99.90;;;;;;5016201;28;20438;-75
2021/12/07 00:08:29;;;;;;;5.00;4.50;;;4.40;99.90;;;;;;5015765;28;20458;-75
2021/12/07 00:10:57;;;;;;;4.43;3.80;;;4.40;99.90;;;;;;5015711;28;20443;-74
2021/12/07 00:13:28;;;;;;;4.30;3.30;;;4.40;99.90;;;;;;5015620;28;20468;-74
2021/12/07 00:15:55;;;;;;;3.80;3.40;;;4.30;99.90;;;;;;5015659;28;20447;-74
2021/12/07 00:18:22;;;;;;;3.50;3.30;;;4.20;99.90;;;;;;5015577;28;20447;-74
2021/12/07 00:20:50;;;;;;;3.53;3.23;;;4.10;99.90;;;;;;5015114;28;20479;-74
2021/12/07 00:23:17;;;;;;;4.23;3.83;;;4.00;99.90;;;;;;5014982;28;20470;-74
2021/12/07 00:25:44;;;;;;;3.67;3.37;;;4.00;99.90;;;;;;5015447;28;20443;-74
2021/12/07 00:28:11;;;;;;;3.87;3.57;;;3.90;99.90;;;;;;5015696;28;20446;-74
2021/12/07 00:30:38;;;;;;;3.60;3.30;;;3.90;99.90;;;;;;5015321;28;20447;-74
2021/12/07 00:33:14;;;;;;;5.50;3.97;;;3.90;99.90;;;;;;5015331;28;20493;-74
2021/12/07 00:35:42;;;;;;;3.80;3.50;;;3.90;99.90;;;;;;5015229;28;20431;-74
2021/12/07 00:38:13;;;;;;;4.20;3.80;;;3.90;99.90;;;;;;5015335;28;20455;-74
2021/12/07 00:40:41;;;;;;;5.00;4.57;;;3.90;99.90;;;;;;5014808;28;20977;-74
2021/12/07 00:43:08;;;;;;;6.00;5.30;;;3.80;99.90;;;;;;5014765;28;20479;-74
2021/12/07 00:45:35;;;;;;;6.40;5.80;;;3.80;99.90;;;;;;5015094;28;20527;-74
2021/12/07 00:48:05;;;;;;;5.87;5.37;;;3.80;99.90;;;;;;5015052;28;20811;-74
2021/12/07 00:50:33;;;;;;;7.77;7.07;;;3.80;99.90;;;;;;5015110;28;20490;-74
2021/12/07 00:53:02;;;;;;;7.50;6.80;;;3.90;99.90;;;;;;5014730;28;20451;-74
2021/12/07 00:55:32;;;;;;;9.33;8.17;;;3.80;99.90;;;;;;5014901;28;20459;-74
2021/12/07 00:58:00;;;;;;;8.97;8.07;;;3.90;99.90;;;;;;5014979;28;20454;-74
2021/12/07 01:00:29;;;;;;;10.97;9.87;;;3.90;99.90;;;;;;5014787;28;20587;-74
2021/12/07 01:02:57;;;;;;;10.00;9.00;;;3.90;99.90;;;;;;5014613;28;20487;-73
2021/12/07 01:05:29;;;;;;;10.70;9.60;;;3.90;99.90;;;;;;5014785;28;20518;-74
2021/12/07 01:08:14;;;;;;;10.50;9.33;;;3.90;99.90;;;;;;5014759;28;20486;-74
2021/12/07 01:24:43;;;;;;;25.17;15.03;;;4.20;99.90;;;;;;5014491;28;20443;-73
2021/12/07 01:27:15;;;;;;;20.03;16.40;;;4.30;99.90;;;;;;5014473;28;20431;-73
2021/12/07 01:29:44;;;;;;;18.87;14.50;;;4.30;99.90;;;;;;5014367;28;20531;-73
2021/12/07 01:32:35;;;;;;;19.50;15.60;;;4.40;99.90;;;;;;5014218;28;20517;-73
2021/12/07 01:38:17;;;;;;;24.07;15.80;;;4.50;99.90;;;;;;4978862;28;20513;-73
2021/12/07 01:40:59;;;;;;;19.30;14.20;;;4.60;99.90;;;;;;5014395;28;20837;-73
2021/12/07 01:52:32;;;;;;;18.23;12.80;;;4.70;99.90;;;;;;5014460;28;20403;-73
2021/12/07 01:58:06;;;;;;;15.67;12.57;;;4.70;99.90;;;;;;5014136;28;20398;-73
2021/12/07 02:00:37;;;;;;;15.37;10.60;;;4.80;99.90;;;;;;5013641;28;20962;-73
2021/12/07 02:03:04;;;;;;;19.33;11.90;;;4.80;99.90;;;;;;5013579;28;20479;-73
2021/12/07 02:05:31;;;;;;;21.77;11.83;;;4.80;99.90;;;;;;5013859;28;20443;-73
2021/12/07 02:07:58;;;;;;;13.20;10.30;;;4.80;99.90;;;;;;5013737;28;20864;-73
2021/12/07 02:10:27;;;;;;;16.40;9.67;;;4.90;99.90;;;;;;5013707;28;20454;-73
2021/12/07 02:13:01;;;;;;;14.23;9.07;;;4.90;99.90;;;;;;5013672;28;20566;-73
2021/12/07 02:15:29;;;;;;;16.13;9.90;;;4.90;99.90;;;;;;5013459;28;20485;-73
2021/12/07 02:17:57;;;;;;;16.73;9.90;;;4.90;99.90;;;;;;5013694;28;20432;-73
2021/12/07 02:20:28;;;;;;;14.67;10.60;;;4.90;99.90;;;;;;5013598;28;20455;-73
2021/12/07 02:22:56;;;;;;;18.67;10.13;;;5.00;99.90;;;;;;5013559;28;20850;-73
2021/12/07 02:25:23;;;;;;;16.57;9.50;;;5.00;99.90;;;;;;5013815;28;20447;-73
2021/12/07 02:27:50;;;;;;;15.70;9.60;;;5.10;99.90;;;;;;5013514;28;20440;-73
2021/12/07 02:30:22;;;;;;;17.60;10.30;;;5.10;99.90;;;;;;5013645;28;20545;-73
2021/12/07 02:32:51;;;;;;;18.37;9.97;;;5.10;99.90;;;;;;5013569;28;20463;-73
2021/12/07 02:35:23;;;;;;;23.20;10.70;;;5.10;99.90;;;;;;5013600;28;20502;-73
2021/12/07 02:37:50;;;;;;;20.57;11.33;;;5.10;99.90;;;;;;5013278;28;20920;-73
2021/12/07 02:40:18;;;;;;;17.13;10.70;;;5.10;99.90;;;;;;5013529;28;20785;-73
2021/12/07 02:42:46;;;;;;;14.30;9.13;;;5.20;99.90;;;;;;5013040;28;20483;-73
2021/12/07 02:45:13;;;;;;;19.10;8.67;;;5.20;99.90;;;;;;5014695;28;20447;-73
2021/12/07 02:47:41;;;;;;;19.83;9.10;;;5.20;99.90;;;;;;5017299;28;20447;-73
2021/12/07 02:50:09;;;;;;;28.53;10.23;;;5.20;99.90;;;;;;5017407;28;20450;-73
2021/12/07 02:52:37;;;;;;;25.87;9.80;;;5.30;99.90;;;;;;5017293;28;20466;-73
2021/12/07 02:55:04;;;;;;;19.50;9.67;;;5.30;99.90;;;;;;5017440;28;20448;-73
2021/12/07 02:57:34;;;;;;;16.17;9.17;;;5.30;99.90;;;;;;5017192;28;20478;-73
2021/12/07 03:00:09;;;;;;;15.60;9.37;;;5.30;99.90;;;;;;5017203;28;20884;-73
2021/12/07 03:02:42;;;;;;;24.90;10.00;;;5.40;99.90;;;;;;5016996;28;20490;-73
2021/12/07 03:05:20;;;;;;;24.77;9.70;;;5.30;99.90;;;;;;5017098;28;20798;-73
2021/12/07 03:08:06;;;;;;;18.93;7.67;;;5.40;99.90;;;;;;5016963;28;20435;-73
2021/12/07 03:27:07;;;;;;;21.90;7.10;;;5.30;99.90;;;;;;5022618;28;20434;-73
2021/12/07 03:29:35;;;;;;;12.00;5.63;;;5.40;99.90;;;;;;5024626;28;20447;-73
2021/12/07 03:32:02;;;;;;;14.87;7.20;;;5.40;99.90;;;;;;5024898;28;20448;-73
2021/12/07 03:34:29;;;;;;;16.37;6.70;;;5.40;99.90;;;;;;5023662;28;20470;-73
2021/12/07 03:36:56;;;;;;;12.40;5.40;;;5.40;99.90;;;;;;5022480;28;20519;-73
2021/12/07 03:39:22;;;;;;;19.73;6.60;;;5.40;99.90;;;;;;5021027;28;20447;-73
2021/12/07 03:41:50;;;;;;;19.67;6.40;;;5.40;99.90;;;;;;5023231;28;20992;-73
2021/12/07 03:44:17;;;;;;;13.27;6.40;;;5.40;99.90;;;;;;5023293;28;20467;-74
2021/12/07 03:46:45;;;;;;;28.13;5.73;;;5.30;99.90;;;;;;5023941;28;20452;-74
2021/12/07 03:49:12;;;;;;;17.77;5.93;;;5.30;99.90;;;;;;5021722;28;20483;-73
2021/12/07 03:51:39;;;;;;;17.90;9.23;;;5.40;99.90;;;;;;5016670;28;20447;-73
2021/12/07 03:54:06;;;;;;;15.60;5.40;;;5.30;99.90;;;;;;5016252;28;20478;-73
2021/12/07 03:56:33;;;;;;;12.00;5.40;;;5.30;99.90;;;;;;5015532;28;20479;-74
2021/12/07 03:59:00;;;;;;;20.03;6.60;;;5.30;99.90;;;;;;5016304;28;20451;-73
2021/12/07 04:01:27;;;;;;;12.00;6.50;;;5.30;99.90;;;;;;5015956;28;20479;-73
2021/12/07 04:03:56;;;;;;;15.53;6.53;;;5.20;99.90;;;;;;5015991;28;20471;-73
2021/12/07 04:06:23;;;;;;;24.20;6.60;;;5.30;99.90;;;;;;5015913;28;20813;-73
2021/12/07 04:08:50;;;;;;;13.47;7.23;;;5.30;99.90;;;;;;5015568;28;20814;-73
2021/12/07 04:11:17;;;;;;;22.30;7.50;;;5.20;99.90;;;;;;5016363;28;20443;-73
2021/12/07 04:13:45;;;;;;;16.40;4.90;;;5.20;99.90;;;;;;5015723;28;20471;-73
2021/12/07 04:16:13;;;;;;;19.70;5.10;;;5.20;99.90;;;;;;5015766;28;20443;-73
2021/12/07 04:18:40;;;;;;;16.23;5.87;;;5.10;99.90;;;;;;5015710;28;20454;-73
2021/12/07 04:21:10;;;;;;;18.63;5.70;;;5.10;99.90;;;;;;5015578;28;20530;-73
2021/12/07 04:23:37;;;;;;;20.27;6.33;;;5.20;99.90;;;;;;5015401;28;20478;-73
2021/12/07 04:26:07;;;;;;;13.87;4.83;;;5.20;99.90;;;;;;5015215;28;20942;-73
2021/12/07 04:28:34;;;;;;;20.30;4.67;;;5.20;99.90;;;;;;5015225;28;20954;-73
2021/12/07 04:31:01;;;;;;;14.70;5.17;;;5.20;99.90;;;;;;5015555;28;20452;-73
2021/12/07 04:33:29;;;;;;;17.43;6.00;;;5.10;99.90;;;;;;5015297;28;20502;-73
2021/12/07 04:35:56;;;;;;;14.60;4.60;;;5.10;99.90;;;;;;5015330;28;20812;-73
2021/12/07 04:38:24;;;;;;;18.07;5.00;;;5.10;99.90;;;;;;5015535;28;20497;-73
2021/12/07 04:40:51;;;;;;;13.83;5.33;;;5.10;99.90;;;;;;5015299;28;20447;-73
2021/12/07 04:43:18;;;;;;;19.37;4.97;;;5.00;99.90;;;;;;5016075;28;20491;-73
2021/12/07 04:45:57;;;;;;;24.50;5.80;;;5.10;99.90;;;;;;5014964;28;20895;-73
2021/12/07 04:48:47;;;;;;;13.00;4.33;;;5.10;99.90;;;;;;5015211;28;20612;-73
2021/12/07 04:59:28;;;;;;;10.03;4.47;;;5.10;99.90;;;;;;5015039;28;20939;-73
2021/12/07 05:01:54;;;;;;;13.53;5.03;;;5.10;99.90;;;;;;5014725;28;20487;-73
2021/12/07 05:04:26;;;;;;;17.03;5.10;;;5.10;99.90;;;;;;5014741;28;20467;-73
2021/12/07 05:06:58;;;;;;;13.43;5.20;;;5.10;99.90;;;;;;5014810;28;20485;-73
2021/12/07 05:09:41;;;;;;;13.77;4.50;;;5.10;99.90;;;;;;5014632;28;20980;-73
2021/12/07 05:12:25;;;;;;;19.47;5.67;;;5.10;99.90;;;;;;5014514;28;20428;-73
2021/12/07 05:15:00;;;;;;;17.60;7.70;;;5.10;99.90;;;;;;5014617;28;20435;-74
2021/12/07 05:17:44;;;;;;;11.80;4.93;;;5.10;99.90;;;;;;5014629;28;20435;-74
2021/12/07 05:39:21;;;;;;;15.23;6.00;;;5.10;99.90;;;;;;5014309;28;20430;-74
2021/12/07 05:41:49;;;;;;;17.93;6.00;;;5.10;99.90;;;;;;5014355;28;20486;-74
2021/12/07 05:44:15;;;;;;;15.37;5.87;;;5.10;99.90;;;;;;5013757;28;20846;-74
2021/12/07 05:46:42;;;;;;;17.47;5.23;;;5.10;99.90;;;;;;5014247;28;20451;-74
2021/12/07 05:49:09;;;;;;;8.03;5.10;;;5.00;99.90;;;;;;5013884;28;20952;-73
2021/12/07 05:51:35;;;;;;;15.67;5.10;;;5.00;99.90;;;;;;5014103;28;20462;-73
2021/12/07 05:54:02;;;;;;;11.80;6.00;;;5.00;99.90;;;;;;5013883;28;20471;-74
2021/12/07 05:56:29;;;;;;;10.37;4.90;;;5.10;99.90;;;;;;5013897;28;20443;-74
2021/12/07 05:58:57;;;;;;;13.63;5.20;;;5.00;99.90;;;;;;5014136;28;20447;-74
2021/12/07 06:01:24;;;;;;;26.93;5.90;;;5.00;99.90;;;;;;5013796;28;20470;-74
2021/12/07 06:03:51;;;;;;;20.13;5.50;;;5.00;99.90;;;;;;5013321;28;20483;-74
2021/12/07 06:06:17;;;;;;;17.37;7.50;;;5.00;99.90;;;;;;5013820;28;20490;-74
2021/12/07 06:08:44;;;;;;;15.17;4.97;;;4.90;99.90;;;;;;5013784;28;20809;-74
2021/12/07 06:11:11;;;;;;;17.53;5.43;;;4.90;99.90;;;;;;5013455;28;20875;-74
2021/12/07 06:13:38;;;;;;;12.23;5.87;;;4.80;99.90;;;;;;5013904;28;20464;-74
2021/12/07 06:16:08;;;;;;;24.57;6.00;;;4.80;99.90;;;;;;5013670;28;20451;-74
2021/12/07 06:18:36;;;;;;;12.53;5.50;;;4.80;99.90;;;;;;5013641;28;20493;-74
2021/12/07 06:21:03;;;;;;;17.90;5.90;;;4.90;99.90;;;;;;5019021;28;20459;-74
2021/12/07 06:23:30;;;;;;;16.73;6.30;;;4.90;99.90;;;;;;5020138;28;20493;-73
2021/12/07 06:25:58;;;;;;;15.87;6.33;;;4.80;99.90;;;;;;5020282;28;20442;-74
2021/12/07 06:28:25;;;;;;;19.17;6.43;;;4.90;99.90;;;;;;5020130;28;20450;-73
2021/12/07 06:30:52;;;;;;;16.47;6.73;;;4.90;99.90;;;;;;5020087;28;20454;-73
2021/12/07 06:33:22;;;;;;;13.63;5.83;;;4.90;99.90;;;;;;5020004;28;20835;-73
2021/12/07 06:35:50;;;;;;;13.73;5.40;;;4.90;99.90;;;;;;5020461;28;20826;-73
2021/12/07 06:38:18;;;;;;;6.90;5.37;;;4.90;99.90;;;;;;5020109;28;20453;-73
2021/12/07 06:40:44;;;;;;;18.00;5.00;;;4.90;99.90;;;;;;5020159;28;20455;-74
2021/12/07 06:43:11;;;;;;;20.03;5.67;;;4.80;99.90;;;;;;5019542;28;20487;-73
2021/12/07 06:45:38;;;;;;;14.70;5.67;;;4.90;99.90;;;;;;5020062;28;20824;-74
2021/12/07 06:48:06;;;;;;;11.33;4.70;;;4.80;99.90;;;;;;5020001;28;20451;-74
2021/12/07 06:50:34;;;;;;;13.30;5.03;;;4.80;99.90;;;;;;5019998;28;20447;-74
2021/12/07 06:53:01;;;;;;;16.93;4.73;;;4.80;99.90;;;;;;5019867;28;20467;-73
2021/12/07 06:55:27;;;;;;;10.23;4.30;;;4.80;99.90;;;;;;5019837;28;20449;-73
2021/12/07 06:57:54;;;;;;;9.80;4.80;;;4.80;99.90;;;;;;5019868;28;20498;-73
2021/12/07 07:00:22;;;;;;;12.27;4.67;;;4.80;99.90;;;;;;5019504;28;20964;-74
2021/12/07 07:02:48;;;;;;;18.60;5.87;;;4.70;99.90;;;;;;5019588;28;20503;-73
2021/12/07 07:05:16;;;;;;;13.13;4.30;;;4.70;99.90;;;;;;5019780;28;20451;-73
2021/12/07 07:07:45;;;;;;;9.33;4.30;;;4.70;99.90;;;;;;5019875;28;20861;-74
2021/12/07 07:10:15;;;;;;;15.53;4.00;;;4.60;99.90;;;;;;5019671;28;20494;-74
2021/12/07 07:12:42;;;;;;;11.17;3.87;;;4.60;99.90;;;;;;5019421;28;20973;-73
2021/12/07 07:15:10;;;;;;;10.63;4.60;;;4.60;99.90;;;;;;5019698;28;20455;-74
2021/12/07 07:17:37;;;;;;;14.33;4.17;;;4.60;99.90;;;;;;5019340;28;20447;-74
2021/12/07 07:20:07;;;;;;;16.20;4.60;;;4.60;99.90;;;;;;5020115;28;20454;-74
2021/12/07 07:22:34;;;;;;;19.83;4.63;;;4.50;99.90;;;;;;5019244;28;20537;-73
2021/12/07 07:25:03;;;;;;;15.40;3.70;;;4.50;99.90;;;;;;5019713;28;20450;-74
2021/12/07 07:27:29;;;;;;;10.23;4.20;;;4.50;99.90;;;;;;5019289;28;20839;-74
2021/12/07 07:29:56;;;;;;;17.43;4.77;;;4.50;99.90;;;;;;5019704;28;20427;-74
2021/12/07 07:32:23;;;;;;;13.30;5.27;;;4.50;99.90;;;;;;5015948;28;20490;-74
2021/12/07 07:34:50;;;;;;;13.50;4.10;;;4.40;99.90;;;;;;5016258;28;20898;-74
2021/12/07 07:37:17;;;;;;;9.23;3.60;;;4.50;99.90;;;;;;5016515;28;20432;-74
2021/12/07 07:39:43;;;;;;;16.73;4.80;;;4.50;99.90;;;;;;5016395;28;20470;-74
2021/12/07 07:42:11;;;;;;;10.27;3.63;;;4.50;99.90;;;;;;5016300;28;20447;-73
2021/12/07 07:44:39;;;;;;;18.77;4.67;;;4.40;99.90;;;;;;5016440;28;20450;-74
2021/12/07 07:47:05;;;;;;;10.67;2.50;;;4.40;99.90;;;;;;5016315;28;20451;-74
2021/12/07 07:49:32;;;;;;;23.60;4.40;;;4.40;99.90;;;;;;5016291;28;20498;-73
2021/12/07 07:51:59;;;;;;;21.57;4.73;;;4.40;99.90;;;;;;5016206;28;20866;-73
2021/12/07 07:54:28;;;;;;;13.90;4.20;;;4.40;99.90;;;;;;5015770;28;21096;-73
2021/12/07 07:56:55;;;;;;;12.73;3.67;;;4.40;99.90;;;;;;5016131;28;20502;-73
2021/12/07 07:59:23;;;;;;;9.63;3.30;;;4.40;99.90;;;;;;5015726;28;20964;-73
2021/12/07 08:01:49;;;;;;;9.40;4.67;;;4.40;99.90;;;;;;5015915;28;20447;-73
2021/12/07 08:04:16;;;;;;;15.43;3.60;;;4.40;99.90;;;;;;5015820;28;20494;-73
2021/12/07 08:06:43;;;;;;;14.30;4.00;;;4.40;99.90;;;;;;5015586;28;20839;-73
2021/12/07 08:09:10;;;;;;;10.67;4.57;;;4.40;99.90;;;;;;5015848;28;20506;-73
2021/12/07 08:11:37;;;;;;;14.67;5.50;;;4.40;99.90;;;;;;5015815;28;20495;-73
2021/12/07 08:14:04;;;;;;;12.70;4.00;;;4.30;99.90;;;;;;5015495;28;20475;-73
2021/12/07 08:16:33;;;;;;;16.27;4.57;;;4.40;99.90;;;;;;5015750;28;20471;-74
2021/12/07 08:19:00;;;;;;;11.63;3.23;;;4.40;99.90;;;;;;5015772;28;20537;-74
2021/12/07 08:21:27;;;;;;;14.83;3.37;;;4.40;99.90;;;;;;5016504;28;20506;-74
2021/12/07 08:23:54;;;;;;;10.40;3.20;;;4.40;99.90;;;;;;5023669;28;20483;-73
2021/12/07 08:26:23;;;;;;;10.03;3.50;;;4.50;99.90;;;;;;5031379;28;20808;-74
2021/12/07 08:28:50;;;;;;;10.67;4.20;;;4.50;99.90;;;;;;5034552;28;20426;-74
2021/12/07 08:31:17;;;;;;;11.83;3.20;;;4.50;99.90;;;;;;5026909;28;20493;-74
2021/12/07 08:33:46;;;;;;;13.10;3.57;;;4.60;99.90;;;;;;5015419;28;20474;-74
2021/12/07 08:36:12;;;;;;;14.73;4.70;;;4.60;99.90;;;;;;5015450;28;20450;-74
2021/12/07 08:38:40;;;;;;;9.77;3.63;;;4.60;99.90;;;;;;5015341;28;20455;-74
2021/12/07 08:41:07;;;;;;;10.40;4.40;;;4.60;99.90;;;;;;5015347;28;20444;-74
2021/12/07 08:43:36;;;;;;;7.90;3.57;;;4.60;99.90;;;;;;5014749;28;20506;-74
2021/12/07 08:46:04;;;;;;;19.97;4.50;;;4.60;99.90;;;;;;5015374;28;20946;-74
2021/12/07 08:48:31;;;;;;;10.83;4.00;;;4.70;99.90;;;;;;5015186;28;20777;-74
2021/12/07 08:51:00;;;;;;;8.80;3.60;;;4.70;99.90;;;;;;5015079;28;20498;-74
2021/12/07 08:53:29;;;;;;;13.33;3.90;;;4.80;99.90;;;;;;5014967;28;20495;-73
2021/12/07 09:01:27;;;;;;;10.33;3.40;;;4.90;99.90;;;;;;5014956;28;20769;-74
2021/12/07 09:03:55;;;;;;;14.73;3.50;;;5.00;99.90;;;;;;5014343;28;20491;-74
2021/12/07 09:06:23;;;;;;;22.10;4.30;;;5.10;99.90;;;;;;5014751;28;20439;-74
2021/12/07 09:08:51;;;;;;;8.57;4.00;;;5.20;99.90;;;;;;5014374;28;20814;-74
2021/12/07 09:11:18;;;;;;;10.70;4.40;;;5.20;99.90;;;;;;5014623;28;20517;-74
2021/12/07 09:13:45;;;;;;;16.10;4.40;;;5.30;99.90;;;;;;5014540;28;20471;-73
2021/12/07 09:16:15;;;;;;;15.20;5.10;;;5.40;99.90;;;;;;5014296;28;20435;-73
2021/12/07 09:18:42;;;;;;;12.67;4.73;;;5.40;99.90;;;;;;5014537;28;20833;-73
2021/12/07 09:21:10;;;;;;;13.87;5.13;;;5.50;99.90;;;;;;5014411;28;20443;-74
2021/12/07 09:23:38;;;;;;;17.83;5.03;;;5.60;99.90;;;;;;5014231;28;20487;-73
2021/12/07 09:26:06;;;;;;;13.53;5.50;;;5.70;99.90;;;;;;5014080;28;20942;-73
2021/12/07 09:28:33;;;;;;;19.97;5.90;;;5.80;99.90;;;;;;5014328;28;20454;-73
2021/12/07 09:31:00;;;;;;;15.40;5.37;;;5.90;99.90;;;;;;5014271;28;20454;-73
2021/12/07 09:33:30;;;;;;;17.20;5.30;;;5.80;99.90;;;;;;5013872;28;20498;-74
2021/12/07 09:35:57;;;;;;;11.23;5.17;;;5.80;99.90;;;;;;5014176;28;20457;-73
2021/12/07 09:38:25;;;;;;;12.50;4.70;;;5.90;99.90;;;;;;5014204;28;20452;-73
2021/12/07 09:40:54;;;;;;;20.27;5.83;;;6.00;99.90;;;;;;5013819;28;20933;-73
2021/12/07 09:43:21;;;;;;;10.40;4.00;;;6.00;99.90;;;;;;5013929;28;20490;-73
2021/12/07 09:45:48;;;;;;;11.50;4.43;;;6.10;99.90;;;;;;5013788;28;20839;-73
2021/12/07 09:48:16;;;;;;;10.80;4.83;;;6.20;99.90;;;;;;5013691;28;20446;-73
2021/12/07 09:50:45;;;;;;;8.70;4.50;;;6.20;99.90;;;;;;5014050;28;20447;-74
2021/12/07 09:53:15;;;;;;;15.27;5.87;;;6.20;99.90;;;;;;5013903;28;20463;-73
2021/12/07 09:55:43;;;;;;;10.03;4.60;;;6.20;99.90;;;;;;5013298;28;20435;-73
2021/12/07 09:58:11;;;;;;;14.70;4.53;;;6.30;99.90;;;;;;5013907;28;20451;-73
2021/12/07 10:00:39;;;;;;;14.07;5.77;;;6.30;99.90;;;;;;5013771;28;20991;-73
2021/12/07 10:03:06;;;;;;;13.13;5.10;;;6.30;99.90;;;;;;5013498;28;20725;-73
2021/12/07 10:05:35;;;;;;;12.73;4.77;;;6.40;99.90;;;;;;5013739;28;20447;-73
2021/12/07 10:08:02;;;;;;;16.53;4.40;;;6.50;99.90;;;;;;5013737;28;20455;-73
2021/12/07 10:10:33;;;;;;;12.73;4.90;;;6.50;99.90;;;;;;5013418;28;20955;-73
2021/12/07 10:13:01;;;;;;;12.17;4.57;;;6.60;99.90;;;;;;5013320;28;20985;-73
2021/12/07 10:15:30;;;;;;;9.70;4.90;;;6.70;99.90;;;;;;5013599;28;20443;-73
2021/12/07 10:18:02;;;;;;;10.10;4.47;;;6.70;99.80;;;;;;5013151;28;20782;-73
2021/12/07 10:20:37;;;;;;;13.73;3.73;;;6.80;99.60;;;;;;5012928;28;20814;-73
2021/12/07 10:23:23;;;;;;;7.87;4.60;;;6.90;99.70;;;;;;5013732;28;20494;-73
2021/12/07 10:25:54;;;;;;;14.33;3.43;;;6.90;98.90;;;;;;5013489;28;20434;-73
2021/12/07 10:28:30;;;;;;;11.40;4.13;;;7.00;98.80;;;;;;5013260;28;20898;-73
2021/12/07 10:31:03;;;;;;;7.10;3.23;;;7.00;98.60;;;;;;5013572;28;20435;-73
2021/12/07 10:33:32;;;;;;;13.07;3.53;;;7.10;98.30;;;;;;5013383;28;20517;-73
2021/12/07 10:36:10;;;;;;;9.97;4.17;;;7.10;98.30;;;;;;5013401;28;20447;-73
2021/12/07 10:38:38;;;;;;;11.23;4.57;;;7.20;98.40;;;;;;5013354;28;20443;-73
2021/12/07 10:41:08;;;;;;;11.00;3.23;;;7.30;98.30;;;;;;5013359;28;20443;-73
2021/12/07 10:43:52;;;;;;;11.97;3.40;;;7.40;98.30;;;;;;5013154;28;20490;-73
2021/12/07 10:46:52;;;;;;;11.43;4.27;;;7.50;98.00;;;;;;5013325;28;20438;-73
2021/12/07 10:49:42;;;;;;;11.03;4.37;;;7.50;97.30;;;;;;5013358;28;20428;-73
2021/12/07 10:52:28;;;;;;;10.17;4.83;;;7.50;97.50;;;;;;5008389;28;20455;-73
2021/12/07 10:55:00;;;;;;;11.00;6.37;;;7.70;97.70;;;;;;5013345;28;20438;-73
2021/12/07 10:57:30;;;;;;;15.20;5.87;;;7.80;97.60;;;;;;5013246;28;20485;-73
2021/12/07 11:00:21;;;;;;;11.70;4.97;;;7.80;97.10;;;;;;5012933;28;20906;-73
2021/12/07 11:02:52;;;;;;;13.67;5.10;;;7.90;96.70;;;;;;5006706;28;20495;-73
2021/12/07 11:05:23;;;;;;;13.73;5.87;;;8.00;96.50;;;;;;5012812;28;20827;-73
2021/12/07 11:07:51;;;;;;;18.83;5.10;;;8.10;96.50;;;;;;5017026;28;20478;-73
2021/12/07 11:10:23;;;;;;;8.60;4.80;;;8.40;96.20;;;;;;5016838;28;20497;-73
2021/12/07 11:12:59;;;;;;;6.37;3.50;;;8.70;95.50;;;;;;5017224;28;20467;-73
2021/12/07 11:15:28;;;;;;;11.43;4.50;;;9.10;94.50;;;;;;5016476;28;20957;-73
2021/12/07 11:17:58;;;;;;;9.67;5.03;;;9.40;92.90;;;;;;5016652;28;20447;-73
2021/12/07 11:20:26;;;;;;;10.90;4.43;;;9.70;91.60;;;;;;5017410;28;20513;-73
2021/12/07 11:22:56;;;;;;;13.00;4.57;;;10.10;90.00;;;;;;5016462;28;20545;-73
2021/12/07 11:25:52;;;;;;;9.80;3.43;;;10.40;86.70;;;;;;5017085;28;20467;-73
2021/12/07 11:31:13;;;;;;;9.23;3.17;;;10.90;83.00;;;;;;5016475;28;20765;-74
2021/12/07 11:33:41;;;;;;;9.97;3.20;;;11.10;79.80;;;;;;5016034;28;20467;-74
2021/12/07 11:36:21;;;;;;;8.67;3.67;;;11.30;78.70;;;;;;5016395;28;20443;-74
2021/12/07 11:38:48;;;;;;;11.10;3.50;;;11.40;77.80;;;;;;5016406;28;20440;-74
2021/12/07 11:41:17;;;;;;;7.10;3.33;;;11.60;75.60;;;;;;5016260;28;20864;-74
2021/12/07 11:43:52;;;;;;;9.03;3.77;;;11.80;75.50;;;;;;5016092;28;20483;-74
2021/12/07 11:46:20;;;;;;;8.03;3.27;;;12.00;75.80;;;;;;5016327;28;20447;-74
2021/12/07 11:48:48;;;;;;;15.83;3.97;;;12.40;75.80;;;;;;5016145;28;20431;-74
2021/12/07 11:51:15;;;;;;;9.20;3.07;;;12.60;72.30;;;;;;5016372;28;20456;-74
2021/12/07 11:53:42;;;;;;;5.57;1.93;;;12.70;71.50;;;;;;5015656;28;20973;-74
2021/12/07 11:56:09;;;;;;;7.30;2.30;;;13.00;70.50;;;;;;5015995;28;20451;-74
2021/12/07 11:58:36;;;;;;;8.77;3.03;;;13.00;65.90;;;;;;5016037;28;20443;-74
2021/12/07 12:01:06;;;;;;;9.40;3.07;;;13.00;66.30;;;;;;5016284;28;20432;-74
2021/12/07 12:03:33;;;;;;;5.80;2.40;;;13.10;65.60;;;;;;5015833;28;20479;-74
2021/12/07 12:06:01;;;;;;;14.90;3.70;;;13.20;65.40;;;;;;5015604;28;20957;-74
2021/12/07 12:08:28;;;;;;;3.80;1.83;;;13.40;64.30;;;;;;5015452;28;20795;-74
2021/12/07 12:10:59;;;;;;;5.30;2.17;;;13.50;63.40;;;;;;5015792;28;20452;-74
2021/12/07 12:13:34;;;;;;;8.33;2.93;;;13.60;61.70;;;;;;5015569;28;20474;-74
2021/12/07 12:16:15;;;;;;;6.43;1.97;;;13.60;60.60;;;;;;5015670;28;20814;-74
2021/12/07 12:18:49;;;;;;;5.17;2.13;;;13.60;59.60;;;;;;5014966;28;20435;-74
2021/12/07 12:21:30;;;;;;;4.87;1.90;;;13.60;59.10;;;;;;5015920;28;20522;-74
2021/12/07 12:24:07;;;;;;;7.00;2.47;;;13.50;58.50;;;;;;5015083;28;20978;-74
2021/12/07 12:26:35;;;;;;;4.90;2.20;;;13.50;58.30;;;;;;5015550;28;20427;-74
2021/12/07 12:29:02;;;;;;;7.37;1.93;;;13.50;58.80;;;;;;5015428;28;20453;-74
2021/12/07 12:31:49;;;;;;;5.37;2.33;;;13.50;57.70;;;;;;5015450;28;20499;-74
2021/12/07 12:34:19;;;;;;;6.40;2.20;;;13.40;56.90;;;;;;5016748;28;20517;-70
2021/12/07 12:36:59;;;;;;;5.77;2.60;;;13.20;56.40;;;;;;5015194;28;20443;-69
2021/12/07 12:39:43;;;;;;;5.80;3.07;;;13.00;57.10;;;;;;5015295;28;20431;-69
2021/12/07 12:42:11;;;;;;;4.43;2.00;;;12.80;57.40;;;;;;5015234;28;20447;-69
2021/12/07 12:44:38;;;;;;;5.40;2.30;;;12.70;57.40;;;;;;5014977;28;20483;-69
2021/12/07 12:47:06;;;;;;;6.50;1.50;;;12.50;57.10;;;;;;5015188;28;20466;-69
2021/12/07 12:49:41;;;;;;;10.17;2.30;;;12.30;58.00;;;;;;5015061;28;20451;-69
2021/12/07 12:52:10;;;;;;;6.63;2.10;;;12.10;58.00;;;;;;5014698;28;20493;-69
2021/12/07 12:54:42;;;;;;;9.23;1.90;;;12.00;58.60;;;;;;5014600;28;20895;-69
2021/12/07 12:57:12;;;;;;;4.30;2.23;;;11.90;58.80;;;;;;5014884;28;20454;-69
2021/12/07 12:59:41;;;;;;;4.27;1.47;;;11.80;59.40;;;;;;5014982;28;20463;-69
2021/12/07 13:02:07;;;;;;;5.07;1.53;;;11.70;59.30;;;;;;5014583;28;20909;-69
2021/12/07 13:04:35;;;;;;;8.37;2.17;;;11.50;58.90;;;;;;5014682;28;20486;-69
2021/12/07 13:07:23;;;;;;;7.03;1.63;;;11.40;59.90;;;;;;5014769;28;20857;-69
2021/12/07 13:09:55;;;;;;;5.73;2.27;;;11.30;60.60;;;;;;5014739;28;20444;-69
2021/12/07 13:12:24;;;;;;;4.70;2.30;;;11.30;61.40;;;;;;5014590;28;20431;-70
2021/12/07 13:15:01;;;;;;;9.93;2.77;;;11.10;61.70;;;;;;5014585;28;20439;-69
2021/12/07 13:17:31;;;;;;;6.47;1.80;;;10.90;62.30;;;;;;5016219;28;20423;-69
2021/12/07 13:20:21;;;;;;;6.37;1.63;;;10.60;62.10;;;;;;5014730;28;20443;-69
2021/12/07 13:22:51;;;;;;;4.10;2.03;;;10.30;63.90;;;;;;5014121;28;20831;-69
2021/12/07 13:25:23;;;;;;;5.00;2.03;;;10.00;65.20;;;;;;5015522;28;20464;-69
2021/12/07 13:28:11;;;;;;;5.10;2.10;;;9.80;67.10;;;;;;5015496;28;20498;-69
2021/12/07 13:30:48;;;;;;;8.33;2.70;;;9.70;67.30;;;;;;5015459;28;20434;-69
2021/12/07 13:33:19;;;;;;;5.93;2.20;;;9.60;69.00;;;;;;5014333;28;20478;-69
2021/12/07 13:35:49;;;;;;;6.70;2.40;;;9.60;70.40;;;;;;5014402;28;20427;-69
2021/12/07 13:38:18;;;;;;;7.53;3.20;;;9.50;70.30;;;;;;5016053;28;20455;-69
2021/12/07 13:40:47;;;;;;;3.83;2.13;;;9.40;70.80;;;;;;5014357;28;20848;-69
2021/12/07 13:43:29;;;;;;;7.30;2.40;;;9.40;71.00;;;;;;5014054;28;20478;-69
2021/12/07 13:46:08;;;;;;;3.87;2.97;;;9.30;70.50;;;;;;5013992;28;20546;-69
2021/12/07 13:48:35;;;;;;;9.40;2.60;;;9.20;71.70;;;;;;5017000;28;20822;-69
2021/12/07 13:51:01;;;;;;;5.73;2.93;;;9.10;72.00;;;;;;5014505;28;20519;-69
2021/12/07 13:53:28;;;;;;;4.33;2.20;;;9.00;72.00;;;;;;5013929;28;20463;-69
2021/12/07 13:55:56;;;;;;;4.87;1.93;;;9.00;73.40;;;;;;5013950;28;20436;-69
2021/12/07 13:58:25;;;;;;;6.77;1.90;;;8.90;74.30;;;;;;5013775;28;20454;-69
2021/12/07 14:00:52;;;;;;;6.17;2.10;;;8.90;75.50;;;;;;5013781;28;20451;-69
2021/12/07 14:03:19;;;;;;;4.17;1.93;;;8.80;74.90;;;;;;5013691;28;20475;-69
2021/12/07 14:05:46;;;;;;;5.40;2.40;;;8.80;74.60;;;;;;5014020;28;20486;-69
2021/12/07 14:08:16;;;;;;;8.60;2.60;;;8.70;74.60;;;;;;5014323;28;20513;-69
2021/12/07 14:10:45;;;;;;;1.70;1.50;;;8.60;75.10;;;;;;5013697;28;20447;-69
2021/12/07 14:13:15;;;;;;;5.73;2.27;;;8.50;75.30;;;;;;5013623;28;20470;-69
2021/12/07 14:15:44;;;;;;;8.10;2.23;;;8.40;75.50;;;;;;5013849;28;20423;-69
2021/12/07 14:18:13;;;;;;;3.73;1.93;;;8.30;76.10;;;;;;5013662;28;20878;-69
2021/12/07 14:20:43;;;;;;;4.63;2.40;;;8.30;76.60;;;;;;5013567;28;20451;-69
2021/12/07 14:23:20;;;;;;;3.47;2.00;;;8.20;76.90;;;;;;5013220;28;21000;-69